createdAt,value
2022-11-28T00:00:00.427Z,99900
2022-11-28T00:01:00.637Z,99895
2022-11-28T00:02:00.392Z,99895
2022-11-28T00:03:00.732Z,99895
2022-11-28T00:04:00.413Z,99895
2022-11-28T00:05:00.364Z,99895
2022-11-28T00:06:02.500Z,99895
2022-11-28T00:07:00.349Z,99895
2022-11-28T00:08:00.731Z,99895
2022-11-28T00:09:00.297Z,99895
2022-11-28T00:10:00.298Z,99895
2022-11-28T00:11:04.699Z,99899
2022-11-28T00:12:00.315Z,99899
2022-11-28T00:13:00.320Z,99899
2022-11-28T00:14:00.344Z,99899
2022-11-28T00:15:00.347Z,99899
2022-11-28T00:16:01.450Z,99897
2022-11-28T00:17:00.311Z,99897
2022-11-28T00:18:00.354Z,99897
2022-11-28T00:19:01.212Z,99897
2022-11-28T00:20:00.312Z,99897
2022-11-28T00:21:01.506Z,99898
2022-11-28T00:22:00.373Z,99898
2022-11-28T00:23:00.302Z,99898
2022-11-28T00:24:00.786Z,99898
2022-11-28T00:25:00.335Z,99898
2022-11-28T00:26:01.451Z,99887
2022-11-28T00:27:00.314Z,99887
2022-11-28T00:28:00.280Z,99887
2022-11-28T00:29:00.628Z,99887
2022-11-28T00:30:00.283Z,99887
2022-11-28T00:31:00.365Z,99879
2022-11-28T00:32:00.393Z,99879
2022-11-28T00:33:00.294Z,99879
2022-11-28T00:34:00.560Z,99879
2022-11-28T00:35:00.283Z,99879
2022-11-28T00:36:01.302Z,99884
2022-11-28T00:37:00.328Z,99884
2022-11-28T00:38:00.323Z,99884
2022-11-28T00:39:00.358Z,99884
2022-11-28T00:40:00.363Z,99884
2022-11-28T00:41:01.447Z,99883
2022-11-28T00:42:00.307Z,99883
2022-11-28T00:43:00.301Z,99883
2022-11-28T00:44:00.664Z,99883
2022-11-28T00:45:00.308Z,99883
2022-11-28T00:46:01.033Z,99887
2022-11-28T00:47:00.286Z,99887
2022-11-28T00:48:00.273Z,99887
2022-11-28T00:49:00.279Z,99887
2022-11-28T00:50:00.368Z,99887
2022-11-28T00:51:10.201Z,99888
2022-11-28T00:52:00.285Z,99888
2022-11-28T00:53:00.278Z,99888
2022-11-28T00:54:01.355Z,99888
2022-11-28T00:55:00.322Z,99888
2022-11-28T00:56:02.521Z,99878
2022-11-28T00:57:00.281Z,99878
2022-11-28T00:58:00.298Z,99878
2022-11-28T00:59:00.325Z,99878
2022-11-28T01:00:00.460Z,99878
2022-11-28T01:01:05.900Z,99868
2022-11-28T01:02:00.421Z,99868
2022-11-28T01:03:00.304Z,99868
2022-11-28T01:04:02.017Z,99868
2022-11-28T01:05:00.313Z,99868
2022-11-28T01:06:00.353Z,99858
2022-11-28T01:07:00.303Z,99858
2022-11-28T01:08:00.302Z,99858
2022-11-28T01:09:01.746Z,99858
2022-11-28T01:10:00.286Z,99858
2022-11-28T01:11:00.451Z,99846
2022-11-28T01:12:00.587Z,99846
2022-11-28T01:13:00.282Z,99846
2022-11-28T01:14:00.735Z,99846
2022-11-28T01:15:00.440Z,99846
2022-11-28T01:16:00.355Z,99845
2022-11-28T01:17:00.336Z,99845
2022-11-28T01:18:00.286Z,99845
2022-11-28T01:19:00.324Z,99845
2022-11-28T01:20:00.415Z,99845
2022-11-28T01:21:00.357Z,99850
2022-11-28T01:22:00.295Z,99850
2022-11-28T01:23:00.565Z,99850
2022-11-28T01:24:01.330Z,99850
2022-11-28T01:25:00.333Z,99850
2022-11-28T01:26:01.320Z,99843
2022-11-28T01:27:00.290Z,99843
2022-11-28T01:28:00.281Z,99843
2022-11-28T01:29:00.327Z,99843
2022-11-28T01:30:00.295Z,99843
2022-11-28T01:31:02.406Z,99841
2022-11-28T01:32:00.400Z,99841
2022-11-28T01:33:00.295Z,99841
2022-11-28T01:34:00.291Z,99841
2022-11-28T01:35:00.313Z,99841
2022-11-28T01:36:00.571Z,99845
2022-11-28T01:37:00.347Z,99845
2022-11-28T01:38:00.312Z,99845
2022-11-28T01:39:00.331Z,99845
2022-11-28T01:40:00.474Z,99845
2022-11-28T01:41:00.891Z,99845
2022-11-28T01:42:00.269Z,99845
2022-11-28T01:43:00.289Z,99845
2022-11-28T01:44:02.226Z,99845
2022-11-28T01:45:03.309Z,99845
2022-11-28T01:46:00.790Z,99839
2022-11-28T01:47:00.440Z,99839
2022-11-28T01:48:01.804Z,99839
2022-11-28T01:49:03.244Z,99839
2022-11-28T01:50:02.098Z,99839
2022-11-28T01:51:01.968Z,99836
2022-11-28T01:52:03.896Z,99836
2022-11-28T01:53:02.832Z,99836
2022-11-28T01:54:00.780Z,99836
2022-11-28T01:55:00.980Z,99836
2022-11-28T01:56:04.029Z,99837
2022-11-28T01:57:02.110Z,99837
2022-11-28T01:58:00.478Z,99837
2022-11-28T01:59:03.434Z,99837
2022-11-28T02:00:04.370Z,99837
2022-11-28T02:01:00.645Z,99824
2022-11-28T02:02:02.574Z,99824
2022-11-28T02:03:10.182Z,99824
2022-11-28T02:04:02.280Z,99824
2022-11-28T02:05:00.605Z,99824
2022-11-28T02:06:01.045Z,99814
2022-11-28T02:07:00.513Z,99814
2022-11-28T02:08:00.789Z,99814
2022-11-28T02:09:00.390Z,99814
2022-11-28T02:10:02.176Z,99814
2022-11-28T02:11:01.346Z,99807
2022-11-28T02:12:01.279Z,99807
2022-11-28T02:13:00.273Z,99807
2022-11-28T02:14:03.535Z,99807
2022-11-28T02:15:10.198Z,99807
2022-11-28T02:16:10.240Z,99801
2022-11-28T02:17:07.680Z,99801
2022-11-28T02:18:00.326Z,99801
2022-11-28T02:19:10.170Z,99801
2022-11-28T02:20:03.543Z,99801
2022-11-28T02:21:00.261Z,99808
2022-11-28T02:22:07.524Z,99808
2022-11-28T02:23:09.478Z,99808
2022-11-28T02:24:03.522Z,99808
2022-11-28T02:25:10.178Z,99808
2022-11-28T02:26:10.194Z,99803
2022-11-28T02:27:08.163Z,99803
2022-11-28T02:28:10.187Z,99803
2022-11-28T02:29:01.289Z,99803
2022-11-28T02:30:07.845Z,99803
2022-11-28T02:31:07.695Z,99805
2022-11-28T02:32:07.793Z,99805
2022-11-28T02:33:07.689Z,99805
2022-11-28T02:34:03.502Z,99805
2022-11-28T02:35:00.277Z,99805
2022-11-28T02:36:10.185Z,99813
2022-11-28T02:37:05.362Z,99813
2022-11-28T02:38:07.379Z,99813
2022-11-28T02:39:09.759Z,99813
2022-11-28T02:40:10.188Z,99813
2022-11-28T02:41:04.976Z,99820
2022-11-28T02:42:07.774Z,99820
2022-11-28T02:43:10.200Z,99820
2022-11-28T02:44:04.260Z,99820
2022-11-28T02:45:06.821Z,99820
2022-11-28T02:46:09.546Z,99822
2022-11-28T02:47:08.692Z,99822
2022-11-28T02:48:03.012Z,99822
2022-11-28T02:49:04.813Z,99822
2022-11-28T02:50:01.251Z,99822
2022-11-28T02:51:03.616Z,99820
2022-11-28T02:52:05.725Z,99820
2022-11-28T02:53:05.650Z,99820
2022-11-28T02:54:01.080Z,99820
2022-11-28T02:55:00.924Z,99820
2022-11-28T02:56:00.514Z,99815
2022-11-28T02:57:00.248Z,99815
2022-11-28T02:58:00.275Z,99815
2022-11-28T02:59:00.294Z,99815
2022-11-28T03:00:00.315Z,99815
2022-11-28T03:01:00.333Z,99811
2022-11-28T03:02:00.489Z,99811
2022-11-28T03:03:00.208Z,99811
2022-11-28T03:04:00.252Z,99811
2022-11-28T03:05:10.217Z,99811
2022-11-28T03:06:01.249Z,99809
2022-11-28T03:07:03.502Z,99809
2022-11-28T03:08:09.271Z,99809
2022-11-28T03:09:08.736Z,99809
2022-11-28T03:10:01.242Z,99809
2022-11-28T03:11:07.134Z,99817
2022-11-28T03:12:06.150Z,99817
2022-11-28T03:13:06.887Z,99817
2022-11-28T03:14:10.151Z,99817
2022-11-28T03:15:01.829Z,99817
2022-11-28T03:16:10.233Z,99814
2022-11-28T03:17:07.585Z,99814
2022-11-28T03:18:01.247Z,99814
2022-11-28T03:19:00.219Z,99814
2022-11-28T03:20:03.912Z,99814
2022-11-28T03:21:06.359Z,99821
2022-11-28T03:22:10.164Z,99821
2022-11-28T03:23:03.506Z,99821
2022-11-28T03:24:02.049Z,99821
2022-11-28T03:25:10.193Z,99821
2022-11-28T03:26:00.242Z,99822
2022-11-28T03:27:10.153Z,99822
2022-11-28T03:28:10.166Z,99822
2022-11-28T03:29:05.818Z,99822
2022-11-28T03:30:05.291Z,99822
2022-11-28T03:31:03.282Z,99821
2022-11-28T03:32:02.832Z,99821
2022-11-28T03:33:01.678Z,99821
2022-11-28T03:34:03.511Z,99821
2022-11-28T03:35:03.998Z,99821
2022-11-28T03:36:07.303Z,99820
2022-11-28T03:37:03.536Z,99820
2022-11-28T03:38:03.563Z,99820
2022-11-28T03:39:10.161Z,99820
2022-11-28T03:40:04.158Z,99820
2022-11-28T03:41:06.049Z,99809
2022-11-28T03:42:10.163Z,99809
2022-11-28T03:43:03.868Z,99809
2022-11-28T03:44:01.256Z,99809
2022-11-28T03:45:09.704Z,99809
2022-11-28T03:46:03.382Z,99807
2022-11-28T03:47:01.260Z,99807
2022-11-28T03:48:04.180Z,99807
2022-11-28T03:49:01.518Z,99807
2022-11-28T03:50:03.807Z,99807
2022-11-28T03:51:01.249Z,99808
2022-11-28T03:52:05.381Z,99808
2022-11-28T03:53:02.768Z,99808
2022-11-28T03:54:00.209Z,99808
2022-11-28T03:55:05.323Z,99808
2022-11-28T03:56:07.284Z,99809
2022-11-28T03:57:03.515Z,99809
2022-11-28T03:58:10.165Z,99809
2022-11-28T03:59:06.833Z,99809
2022-11-28T04:00:04.178Z,99809
2022-11-28T04:01:00.276Z,99808
2022-11-28T04:02:10.162Z,99808
2022-11-28T04:03:10.229Z,99808
2022-11-28T04:04:08.318Z,99808
2022-11-28T04:05:10.172Z,99808
2022-11-28T04:06:04.413Z,99817
2022-11-28T04:07:10.146Z,99817
2022-11-28T04:08:04.973Z,99817
2022-11-28T04:09:04.299Z,99817
2022-11-28T04:10:04.793Z,99817
2022-11-28T04:11:07.758Z,99815
2022-11-28T04:12:06.483Z,99815
2022-11-28T04:13:01.256Z,99815
2022-11-28T04:14:04.952Z,99815
2022-11-28T04:15:05.035Z,99815
2022-11-28T04:16:10.212Z,99806
2022-11-28T04:17:05.261Z,99806
2022-11-28T04:18:07.616Z,99806
2022-11-28T04:19:05.136Z,99806
2022-11-28T04:20:04.914Z,99806
2022-11-28T04:21:06.105Z,99809
2022-11-28T04:22:04.096Z,99809
2022-11-28T04:23:03.424Z,99809
2022-11-28T04:24:02.650Z,99809
2022-11-28T04:25:03.732Z,99809
2022-11-28T04:26:04.110Z,99812
2022-11-28T04:27:01.820Z,99812
2022-11-28T04:28:03.071Z,99812
2022-11-28T04:29:03.109Z,99812
2022-11-28T04:30:02.221Z,99812
2022-11-28T04:31:01.845Z,99806
2022-11-28T04:32:01.203Z,99806
2022-11-28T04:33:03.407Z,99806
2022-11-28T04:34:03.463Z,99806
2022-11-28T04:35:04.666Z,99806
2022-11-28T04:36:01.063Z,99806
2022-11-28T04:37:04.269Z,99806
2022-11-28T04:38:02.096Z,99806
2022-11-28T04:39:00.961Z,99806
2022-11-28T04:40:01.189Z,99806
2022-11-28T04:41:10.313Z,99806
2022-11-28T04:42:03.677Z,99806
2022-11-28T04:43:02.741Z,99806
2022-11-28T04:44:07.808Z,99806
2022-11-28T04:45:05.373Z,99806
2022-11-28T04:46:03.952Z,99819
2022-11-28T04:47:00.324Z,99819
2022-11-28T04:48:00.694Z,99819
2022-11-28T04:49:00.304Z,99819
2022-11-28T04:50:00.382Z,99819
2022-11-28T04:51:10.163Z,99823
2022-11-28T04:52:05.886Z,99823
2022-11-28T04:53:10.155Z,99823
2022-11-28T04:54:10.459Z,99823
2022-11-28T04:55:08.120Z,99823
2022-11-28T04:56:10.158Z,99819
2022-11-28T04:57:10.155Z,99819
2022-11-28T04:58:10.145Z,99819
2022-11-28T04:59:00.826Z,99819
2022-11-28T05:00:03.222Z,99819
2022-11-28T05:01:02.810Z,99819
2022-11-28T05:02:03.559Z,99819
2022-11-28T05:03:00.349Z,99819
2022-11-28T05:04:00.338Z,99819
2022-11-28T05:05:00.476Z,99819
2022-11-28T05:06:00.888Z,99823
2022-11-28T05:07:02.484Z,99823
2022-11-28T05:08:00.306Z,99823
2022-11-28T05:09:00.399Z,99823
2022-11-28T05:10:00.259Z,99823
2022-11-28T05:11:00.295Z,99827
2022-11-28T05:12:00.372Z,99827
2022-11-28T05:13:00.247Z,99827
2022-11-28T05:14:00.271Z,99827
2022-11-28T05:15:00.239Z,99827
2022-11-28T05:16:00.322Z,99830
2022-11-28T05:17:00.247Z,99830
2022-11-28T05:18:00.265Z,99830
2022-11-28T05:19:00.255Z,99830
2022-11-28T05:20:00.647Z,99830
2022-11-28T05:21:00.234Z,99827
2022-11-28T05:22:00.232Z,99827
2022-11-28T05:23:00.250Z,99827
2022-11-28T05:24:00.249Z,99827
2022-11-28T05:25:00.242Z,99827
2022-11-28T05:26:03.419Z,99818
2022-11-28T05:27:00.234Z,99818
2022-11-28T05:28:00.248Z,99818
2022-11-28T05:29:00.804Z,99818
2022-11-28T05:30:00.253Z,99818
2022-11-28T05:31:01.365Z,99822
2022-11-28T05:32:00.352Z,99822
2022-11-28T05:33:00.226Z,99822
2022-11-28T05:34:00.256Z,99822
2022-11-28T05:35:00.249Z,99822
2022-11-28T05:36:02.508Z,99822
2022-11-28T05:37:00.236Z,99822
2022-11-28T05:38:00.240Z,99822
2022-11-28T05:39:00.246Z,99822
2022-11-28T05:40:00.307Z,99822
2022-11-28T05:41:00.919Z,99824
2022-11-28T05:42:00.276Z,99824
2022-11-28T05:43:00.253Z,99824
2022-11-28T05:44:00.595Z,99824
2022-11-28T05:45:00.373Z,99824
2022-11-28T05:46:00.318Z,99828
2022-11-28T05:47:00.222Z,99828
2022-11-28T05:48:00.228Z,99828
2022-11-28T05:49:00.252Z,99828
2022-11-28T05:50:00.401Z,99828
2022-11-28T05:51:02.457Z,99825
2022-11-28T05:52:00.253Z,99825
2022-11-28T05:53:00.273Z,99825
2022-11-28T05:54:00.350Z,99825
2022-11-28T05:55:00.231Z,99825
2022-11-28T05:56:05.135Z,99821
2022-11-28T05:57:00.235Z,99821
2022-11-28T05:58:00.248Z,99821
2022-11-28T05:59:00.260Z,99821
2022-11-28T06:00:00.318Z,99821
2022-11-28T06:01:07.556Z,99826
2022-11-28T06:02:00.497Z,99826
2022-11-28T06:03:01.662Z,99826
2022-11-28T06:04:00.473Z,99826
2022-11-28T06:05:16.217Z,99826
2022-11-28T06:06:00.350Z,99825
2022-11-28T06:07:00.289Z,99825
2022-11-28T06:08:00.339Z,99825
2022-11-28T06:09:00.462Z,99825
2022-11-28T06:10:00.240Z,99825
2022-11-28T06:11:00.245Z,99831
2022-11-28T06:12:00.289Z,99831
2022-11-28T06:13:00.247Z,99831
2022-11-28T06:14:00.529Z,99831
2022-11-28T06:15:00.316Z,99831
2022-11-28T06:16:00.535Z,99829
2022-11-28T06:17:00.308Z,99829
2022-11-28T06:18:00.313Z,99829
2022-11-28T06:19:01.279Z,99829
2022-11-28T06:20:00.292Z,99829
2022-11-28T06:21:00.964Z,99832
2022-11-28T06:22:00.239Z,99832
2022-11-28T06:23:00.237Z,99832
2022-11-28T06:24:00.299Z,99832
2022-11-28T06:25:00.317Z,99832
2022-11-28T06:26:09.573Z,99845
2022-11-28T06:27:00.241Z,99845
2022-11-28T06:28:00.222Z,99845
2022-11-28T06:29:00.272Z,99845
2022-11-28T06:30:00.283Z,99845
2022-11-28T06:31:00.544Z,99843
2022-11-28T06:32:00.339Z,99843
2022-11-28T06:33:00.257Z,99843
2022-11-28T06:34:00.261Z,99843
2022-11-28T06:35:00.222Z,99843
2022-11-28T06:36:00.898Z,99845
2022-11-28T06:37:00.236Z,99845
2022-11-28T06:38:00.255Z,99845
2022-11-28T06:39:00.238Z,99845
2022-11-28T06:40:00.308Z,99845
2022-11-28T06:41:01.529Z,99847
2022-11-28T06:42:00.333Z,99847
2022-11-28T06:43:00.227Z,99847
2022-11-28T06:44:00.253Z,99847
2022-11-28T06:45:00.239Z,99847
2022-11-28T06:46:00.340Z,99854
2022-11-28T06:47:00.242Z,99854
2022-11-28T06:48:00.312Z,99854
2022-11-28T06:49:00.238Z,99854
2022-11-28T06:50:00.241Z,99854
2022-11-28T06:51:01.191Z,99860
2022-11-28T06:52:00.242Z,99860
2022-11-28T06:53:00.253Z,99860
2022-11-28T06:54:00.277Z,99860
2022-11-28T06:55:00.293Z,99860
2022-11-28T06:56:04.186Z,99854
2022-11-28T06:57:00.282Z,99854
2022-11-28T06:58:00.307Z,99854
2022-11-28T06:59:00.348Z,99854
2022-11-28T07:00:00.346Z,99854
2022-11-28T07:01:08.990Z,99851
2022-11-28T07:02:04.325Z,99851
2022-11-28T07:03:00.251Z,99851
2022-11-28T07:04:00.279Z,99851
2022-11-28T07:05:00.288Z,99851
2022-11-28T07:06:00.962Z,99850
2022-11-28T07:07:00.279Z,99850
2022-11-28T07:08:00.392Z,99850
2022-11-28T07:09:00.384Z,99850
2022-11-28T07:10:00.241Z,99850
2022-11-28T07:11:07.761Z,99855
2022-11-28T07:12:00.239Z,99855
2022-11-28T07:13:04.910Z,99855
2022-11-28T07:14:00.589Z,99855
2022-11-28T07:15:00.520Z,99855
2022-11-28T07:16:00.308Z,99856
2022-11-28T07:17:00.404Z,99856
2022-11-28T07:18:00.260Z,99856
2022-11-28T07:19:00.337Z,99856
2022-11-28T07:20:00.460Z,99856
2022-11-28T07:21:00.519Z,99863
2022-11-28T07:22:00.286Z,99863
2022-11-28T07:23:00.311Z,99863
2022-11-28T07:24:00.258Z,99863
2022-11-28T07:25:00.274Z,99863
2022-11-28T07:26:00.963Z,99860
2022-11-28T07:27:00.251Z,99860
2022-11-28T07:28:00.223Z,99860
2022-11-28T07:29:00.342Z,99860
2022-11-28T07:30:00.405Z,99860
2022-11-28T07:31:03.717Z,99850
2022-11-28T07:32:00.810Z,99850
2022-11-28T07:33:00.301Z,99850
2022-11-28T07:34:00.740Z,99850
2022-11-28T07:35:00.277Z,99850
2022-11-28T07:36:00.836Z,99852
2022-11-28T07:37:00.347Z,99852
2022-11-28T07:38:00.385Z,99852
2022-11-28T07:39:01.071Z,99852
2022-11-28T07:40:00.333Z,99852
2022-11-28T07:41:02.428Z,99855
2022-11-28T07:42:00.236Z,99855
2022-11-28T07:43:00.227Z,99855
2022-11-28T07:44:01.083Z,99855
2022-11-28T07:45:00.239Z,99855
2022-11-28T07:46:08.845Z,99856
2022-11-28T07:47:00.293Z,99856
2022-11-28T07:48:00.235Z,99856
2022-11-28T07:49:00.324Z,99856
2022-11-28T07:50:00.256Z,99856
2022-11-28T07:51:04.336Z,99863
2022-11-28T07:52:00.237Z,99863
2022-11-28T07:53:05.638Z,99863
2022-11-28T07:54:00.690Z,99863
2022-11-28T07:55:00.286Z,99863
2022-11-28T07:56:01.786Z,99865
2022-11-28T07:57:13.368Z,99865
2022-11-28T07:58:00.258Z,99865
2022-11-28T07:59:03.221Z,99865
2022-11-28T08:00:00.340Z,99865
2022-11-28T08:01:06.558Z,99863
2022-11-28T08:02:00.398Z,99863
2022-11-28T08:03:00.221Z,99863
2022-11-28T08:04:00.698Z,99863
2022-11-28T08:05:00.339Z,99863
2022-11-28T08:06:02.963Z,99862
2022-11-28T08:07:00.262Z,99862
2022-11-28T08:08:00.435Z,99862
2022-11-28T08:09:00.240Z,99862
2022-11-28T08:10:00.229Z,99862
2022-11-28T08:11:01.647Z,99859
2022-11-28T08:12:00.235Z,99859
2022-11-28T08:13:00.307Z,99859
2022-11-28T08:14:00.627Z,99859
2022-11-28T08:15:00.237Z,99859
2022-11-28T08:16:08.640Z,99862
2022-11-28T08:17:00.287Z,99862
2022-11-28T08:18:00.283Z,99862
2022-11-28T08:19:00.649Z,99862
2022-11-28T08:20:00.530Z,99862
2022-11-28T08:21:02.272Z,99856
2022-11-28T08:22:00.285Z,99856
2022-11-28T08:23:00.280Z,99856
2022-11-28T08:24:00.990Z,99856
2022-11-28T08:25:00.296Z,99856
2022-11-28T08:26:01.449Z,99858
2022-11-28T08:27:00.256Z,99858
2022-11-28T08:28:00.242Z,99858
2022-11-28T08:29:01.052Z,99858
2022-11-28T08:30:00.250Z,99858
2022-11-28T08:31:07.634Z,99858
2022-11-28T08:32:00.253Z,99858
2022-11-28T08:33:00.234Z,99858
2022-11-28T08:34:00.903Z,99858
2022-11-28T08:35:00.299Z,99858
2022-11-28T08:36:02.785Z,99861
2022-11-28T08:37:00.298Z,99861
2022-11-28T08:38:01.944Z,99861
2022-11-28T08:39:17.088Z,99861
2022-11-28T08:40:00.245Z,99861
2022-11-28T08:41:02.403Z,99851
2022-11-28T08:42:00.264Z,99851
2022-11-28T08:43:00.252Z,99851
2022-11-28T08:44:00.240Z,99851
2022-11-28T08:45:00.248Z,99851
2022-11-28T08:46:00.308Z,99847
2022-11-28T08:47:00.262Z,99847
2022-11-28T08:48:00.267Z,99847
2022-11-28T08:49:00.243Z,99847
2022-11-28T08:50:00.255Z,99847
2022-11-28T08:51:00.403Z,99854
2022-11-28T08:52:01.355Z,99854
2022-11-28T08:54:00.387Z,99854
2022-11-28T08:55:00.250Z,99854
2022-11-28T08:56:00.260Z,99855
2022-11-28T08:57:00.230Z,99855
2022-11-28T08:58:00.313Z,99855
2022-11-28T08:59:00.505Z,99855
2022-11-28T09:00:00.296Z,99855
2022-11-28T09:01:00.380Z,99864
2022-11-28T09:02:00.239Z,99864
2022-11-28T09:03:00.259Z,99864
2022-11-28T09:04:00.332Z,99864
2022-11-28T09:05:00.252Z,99864
2022-11-28T09:06:00.577Z,99871
2022-11-28T09:07:00.244Z,99871
2022-11-28T09:08:00.331Z,99871
2022-11-28T09:09:00.256Z,99871
2022-11-28T09:10:00.285Z,99871
2022-11-28T09:11:00.250Z,99874
2022-11-28T09:12:00.329Z,99874
2022-11-28T09:13:00.243Z,99874
2022-11-28T09:14:00.272Z,99874
2022-11-28T09:15:00.340Z,99874
2022-11-28T09:16:00.523Z,99873
2022-11-28T09:17:00.487Z,99873
2022-11-28T09:18:00.318Z,99873
2022-11-28T09:19:00.302Z,99873
2022-11-28T09:20:00.289Z,99873
2022-11-28T09:21:01.670Z,99869
2022-11-28T09:22:00.246Z,99869
2022-11-28T09:23:00.237Z,99869
2022-11-28T09:24:00.258Z,99869
2022-11-28T09:25:00.282Z,99869
2022-11-28T09:26:00.421Z,99870
2022-11-28T09:27:01.327Z,99870
2022-11-28T09:28:00.235Z,99870
2022-11-28T09:29:00.239Z,99870
2022-11-28T09:30:00.253Z,99870
2022-11-28T09:31:00.892Z,99877
2022-11-28T09:32:00.292Z,99877
2022-11-28T09:33:00.295Z,99877
2022-11-28T09:34:00.227Z,99877
2022-11-28T09:35:00.378Z,99877
2022-11-28T09:36:05.272Z,99878
2022-11-28T09:37:04.628Z,99878
2022-11-28T09:38:00.263Z,99878
2022-11-28T09:39:01.993Z,99878
2022-11-28T09:40:13.463Z,99878
2022-11-28T09:41:01.184Z,99881
2022-11-28T09:42:06.421Z,99881
2022-11-28T09:43:01.865Z,99881
2022-11-28T09:44:02.211Z,99881
2022-11-28T09:45:10.208Z,99881
2022-11-28T09:46:02.767Z,99883
2022-11-28T09:47:03.214Z,99883
2022-11-28T09:48:10.179Z,99883
2022-11-28T09:49:01.959Z,99883
2022-11-28T09:50:05.190Z,99883
2022-11-28T09:51:03.876Z,99879
2022-11-28T09:52:10.269Z,99879
2022-11-28T09:53:04.347Z,99879
2022-11-28T09:54:09.633Z,99879
2022-11-28T09:55:00.247Z,99879
2022-11-28T09:56:10.203Z,99875
2022-11-28T09:57:02.249Z,99875
2022-11-28T09:58:07.819Z,99875
2022-11-28T09:59:00.791Z,99875
2022-11-28T10:00:00.415Z,99875
2022-11-28T10:01:10.163Z,99874
2022-11-28T10:02:10.156Z,99874
2022-11-28T10:03:00.239Z,99874
2022-11-28T10:04:04.152Z,99874
2022-11-28T10:05:01.329Z,99874
2022-11-28T10:06:09.745Z,99879
2022-11-28T10:07:01.238Z,99879
2022-11-28T10:08:10.193Z,99879
2022-11-28T10:09:07.703Z,99879
2022-11-28T10:10:01.235Z,99879
2022-11-28T10:11:10.160Z,99886
2022-11-28T10:12:09.342Z,99886
2022-11-28T10:13:00.228Z,99886
2022-11-28T10:14:08.143Z,99886
2022-11-28T10:15:10.177Z,99886
2022-11-28T10:16:01.269Z,99892
2022-11-28T10:17:08.692Z,99892
2022-11-28T10:18:11.317Z,99892
2022-11-28T10:19:04.909Z,99892
2022-11-28T10:20:04.105Z,99892
2022-11-28T10:21:03.916Z,99889
2022-11-28T10:22:01.239Z,99889
2022-11-28T10:23:03.740Z,99889
2022-11-28T10:24:02.627Z,99889
2022-11-28T10:25:03.787Z,99889
2022-11-28T10:26:06.188Z,99884
2022-11-28T10:27:02.242Z,99884
2022-11-28T10:28:00.757Z,99884
2022-11-28T10:29:02.178Z,99884
2022-11-28T10:30:06.625Z,99884
2022-11-28T10:31:05.109Z,99888
2022-11-28T10:32:02.577Z,99888
2022-11-28T10:33:10.165Z,99888
2022-11-28T10:34:10.175Z,99888
2022-11-28T10:35:01.251Z,99888
2022-11-28T10:36:00.873Z,99888
2022-11-28T10:37:02.344Z,99888
2022-11-28T10:38:00.272Z,99888
2022-11-28T10:39:08.495Z,99888
2022-11-28T10:40:10.172Z,99888
2022-11-28T10:41:10.151Z,99892
2022-11-28T10:42:04.156Z,99892
2022-11-28T10:43:03.241Z,99892
2022-11-28T10:44:10.163Z,99892
2022-11-28T10:45:04.629Z,99892
2022-11-28T10:46:00.341Z,99898
2022-11-28T10:47:01.249Z,99898
2022-11-28T10:48:37.133Z,99898
2022-11-28T10:49:00.249Z,99898
2022-11-28T10:50:09.911Z,99898
2022-11-28T10:51:10.168Z,99893
2022-11-28T10:52:07.659Z,99893
2022-11-28T10:53:07.555Z,99893
2022-11-28T10:54:00.261Z,99893
2022-11-28T10:55:10.171Z,99893
2022-11-28T10:56:00.247Z,99890
2022-11-28T10:57:07.919Z,99890
2022-11-28T10:58:00.229Z,99890
2022-11-28T10:59:07.508Z,99890
2022-11-28T11:00:01.323Z,99890
2022-11-28T11:01:01.028Z,99890
2022-11-28T11:02:03.036Z,99890
2022-11-28T11:03:02.054Z,99890
2022-11-28T11:04:00.359Z,99890
2022-11-28T11:05:00.398Z,99890
2022-11-28T11:06:00.332Z,99897
2022-11-28T11:07:14.819Z,99897
2022-11-28T11:08:07.729Z,99897
2022-11-28T11:09:00.296Z,99897
2022-11-28T11:10:10.162Z,99897
2022-11-28T11:11:10.168Z,99907
2022-11-28T11:12:00.326Z,99907
2022-11-28T11:13:09.512Z,99907
2022-11-28T11:14:04.317Z,99907
2022-11-28T11:15:10.156Z,99907
2022-11-28T11:16:09.641Z,99915
2022-11-28T11:17:00.262Z,99915
2022-11-28T11:18:02.831Z,99915
2022-11-28T11:19:00.243Z,99915
2022-11-28T11:20:00.495Z,99915
2022-11-28T11:21:07.792Z,99912
2022-11-28T11:22:00.213Z,99912
2022-11-28T11:23:02.453Z,99912
2022-11-28T11:24:10.150Z,99912
2022-11-28T11:25:04.755Z,99912
2022-11-28T11:26:00.707Z,99911
2022-11-28T11:27:03.166Z,99911
2022-11-28T11:28:02.686Z,99911
2022-11-28T11:29:01.378Z,99911
2022-11-28T11:30:00.868Z,99911
2022-11-28T11:31:01.827Z,99909
2022-11-28T11:32:00.757Z,99909
2022-11-28T11:33:02.269Z,99909
2022-11-28T11:34:02.262Z,99909
2022-11-28T11:35:00.569Z,99909
2022-11-28T11:36:02.152Z,99911
2022-11-28T11:37:10.144Z,99911
2022-11-28T11:38:10.143Z,99911
2022-11-28T11:39:10.163Z,99911
2022-11-28T11:40:00.790Z,99911
2022-11-28T11:41:10.152Z,99910
2022-11-28T11:42:00.222Z,99910
2022-11-28T11:43:00.285Z,99910
2022-11-28T11:44:10.266Z,99910
2022-11-28T11:45:10.231Z,99910
2022-11-28T11:46:10.347Z,99911
2022-11-28T11:47:01.782Z,99911
2022-11-28T11:48:00.801Z,99911
2022-11-28T11:49:00.316Z,99911
2022-11-28T11:50:03.375Z,99911
2022-11-28T11:51:00.277Z,99912
2022-11-28T11:52:03.015Z,99912
2022-11-28T11:53:10.222Z,99912
2022-11-28T11:54:01.259Z,99912
2022-11-28T11:55:02.461Z,99912
2022-11-28T11:56:02.154Z,99914
2022-11-28T11:57:30.814Z,99914
2022-11-28T11:58:05.438Z,99914
2022-11-28T11:59:01.906Z,99914
2022-11-28T12:00:03.695Z,99914
2022-11-28T12:01:01.289Z,99913
2022-11-28T12:02:01.854Z,99913
2022-11-28T12:03:10.319Z,99913
2022-11-28T12:04:17.718Z,99913
2022-11-28T12:05:10.252Z,99913
2022-11-28T12:06:14.338Z,99914
2022-11-28T12:07:01.787Z,99914
2022-11-28T12:08:01.978Z,99914
2022-11-28T12:09:10.192Z,99914
2022-11-28T12:10:04.728Z,99914
2022-11-28T12:11:07.757Z,99916
2022-11-28T12:12:08.731Z,99916
2022-11-28T12:13:01.510Z,99916
2022-11-28T12:14:10.222Z,99916
2022-11-28T12:15:00.273Z,99916
2022-11-28T12:16:07.284Z,99925
2022-11-28T12:17:00.246Z,99925
2022-11-28T12:18:00.234Z,99925
2022-11-28T12:19:00.263Z,99925
2022-11-28T12:20:01.285Z,99925
2022-11-28T12:21:00.259Z,99931
2022-11-28T12:22:10.186Z,99931
2022-11-28T12:23:03.542Z,99931
2022-11-28T12:24:05.635Z,99931
2022-11-28T12:25:10.299Z,99931
2022-11-28T12:26:08.893Z,99931
2022-11-28T12:27:05.684Z,99931
2022-11-28T12:28:10.268Z,99931
2022-11-28T12:29:10.227Z,99931
2022-11-28T12:30:10.272Z,99931
2022-11-28T12:31:10.297Z,99933
2022-11-28T12:32:10.053Z,99933
2022-11-28T12:33:10.211Z,99933
2022-11-28T12:34:10.202Z,99933
2022-11-28T12:35:10.257Z,99933
2022-11-28T12:36:03.674Z,99939
2022-11-28T12:37:01.277Z,99939
2022-11-28T12:38:11.391Z,99939
2022-11-28T12:39:10.236Z,99939
2022-11-28T12:40:00.248Z,99939
2022-11-28T12:41:10.259Z,99949
2022-11-28T12:42:10.245Z,99949
2022-11-28T12:43:07.698Z,99949
2022-11-28T12:44:10.198Z,99949
2022-11-28T12:45:07.709Z,99949
2022-11-28T12:46:01.291Z,99950
2022-11-28T12:47:10.224Z,99950
2022-11-28T12:48:01.284Z,99950
2022-11-28T12:49:10.240Z,99950
2022-11-28T12:50:10.332Z,99950
2022-11-28T12:51:00.219Z,99950
2022-11-28T12:52:10.212Z,99950
2022-11-28T12:53:01.270Z,99950